Charlevoix, Michigan
Current Conditions -  °F | °C
As of 3:14 AM on Thursday 29 Jan 2015 (Local Time) from KCVX Reporting Station
Overcast Overcast  
Wind Chill: -6°   Ceiling: 3900
Heat Index: -2°   Visibility: 10mi
Dew Point: -11°   Wind: 9mph
Humidity: 50%   Direction: 160°SSE
Pressure: 29.88"   Gusts: NA
Location:  45.32°N, 85.26°W
Report Text: KCVX 290814Z AUTO 16008KT 10SM BKN039 OVC050 M02/M11 A2988 RMK AO2 T10171109
Loading
Personal Weather Stations






























Interactive Weather Map New forecast layout! Learn more

10-Day Weather Forecast

Advertisements
Track Severe Weather on mobile